SWW weather

Avenger Field
Sweetwater, Texas, United States

Public forecast

Using degrees Fahrenheit for public forecast. Weather courtesy of forecast.io.

Current aviation weather report (METAR) for Avenger Field

Retrieved 2020/02/26 11:35 UTC (22 minutes ago):

KSWW 261135Z AUTO 34014G22KT 10SM OVC037 01/M07 A3047 RMK AO2 T00051072

Closest aviation forecast (TAF) to Avenger Field

Closest forecast is Dyess Air Force Base, 31.2 nm (57.7 km) E. Retrieved 2020/02/26 09:33 UTC (2 hours ago):

TAF KDYS 260953Z 2609/2715 33015G25KT 9999 BKN038 520053 QNH3036INS TEMPO 2610/2612 34025G35KT BECMG 2614/2615 34015G25KT 9999 SCT040 QNH3034INS BECMG 2616/2617 34012G20KT 9999 SKC QNH3032INS BECMG 2623/2624 VRB06KT 9999 SKC QNH3031INS BECMG 2704/2705 17006KT 9999 SKC QNH3025INS BECMG 2714/2715 21015KT 9999 SKC QNH3029INS TX08/2622Z TNM01/2612Z